sensor_id;sensor_type;location;lat;lon;timestamp;pressure;altitude;pressure_sealevel;temperature;humidity
76260;BME280;65076;52.362;6.588;2023-02-28T00:01:47;103199.94;;;4.98;65.60
76260;BME280;65076;52.362;6.588;2023-02-28T00:04:16;103182.41;;;5.29;64.45
76260;BME280;65076;52.362;6.588;2023-02-28T00:06:44;103187.84;;;5.32;64.19
76260;BME280;65076;52.362;6.588;2023-02-28T00:09:12;103190.59;;;5.39;63.92
76260;BME280;65076;52.362;6.588;2023-02-28T00:11:40;103190.53;;;5.32;64.04
76260;BME280;65076;52.362;6.588;2023-02-28T00:14:08;103189.88;;;5.54;63.98
76260;BME280;65076;52.362;6.588;2023-02-28T00:16:36;103187.38;;;5.74;62.40
76260;BME280;65076;52.362;6.588;2023-02-28T00:19:04;103184.75;;;5.83;62.25
76260;BME280;65076;52.362;6.588;2023-02-28T00:21:33;103187.34;;;5.72;62.52
76260;BME280;65076;52.362;6.588;2023-02-28T00:24:02;103185.75;;;5.88;62.40
76260;BME280;65076;52.362;6.588;2023-02-28T00:26:30;103180.38;;;5.89;62.15
76260;BME280;65076;52.362;6.588;2023-02-28T00:28:58;103187.38;;;5.74;62.60
76260;BME280;65076;52.362;6.588;2023-02-28T00:31:26;103188.25;;;5.73;62.95
76260;BME280;65076;52.362;6.588;2023-02-28T00:33:55;103182.22;;;5.93;62.08
76260;BME280;65076;52.362;6.588;2023-02-28T00:36:23;103181.91;;;5.66;62.99
76260;BME280;65076;52.362;6.588;2023-02-28T00:38:52;103192.97;;;5.12;64.44
76260;BME280;65076;52.362;6.588;2023-02-28T00:41:20;103191.31;;;5.25;64.48
76260;BME280;65076;52.362;6.588;2023-02-28T00:43:48;103183.66;;;5.60;64.26
76260;BME280;65076;52.362;6.588;2023-02-28T00:46:16;103188.09;;;5.56;63.62
76260;BME280;65076;52.362;6.588;2023-02-28T00:48:45;103179.16;;;5.60;63.69
76260;BME280;65076;52.362;6.588;2023-02-28T00:51:13;103186.28;;;5.55;63.84
76260;BME280;65076;52.362;6.588;2023-02-28T00:53:41;103185.66;;;5.80;63.11
76260;BME280;65076;52.362;6.588;2023-02-28T00:56:10;103179.16;;;5.60;63.51
76260;BME280;65076;52.362;6.588;2023-02-28T00:58:38;103178.28;;;5.61;63.90
76260;BME280;65076;52.362;6.588;2023-02-28T01:01:06;103180.72;;;5.34;64.55
76260;BME280;65076;52.362;6.588;2023-02-28T01:03:34;103182.53;;;5.38;65.03
76260;BME280;65076;52.362;6.588;2023-02-28T01:06:03;103180.88;;;5.50;64.20
76260;BME280;65076;52.362;6.588;2023-02-28T01:08:31;103182.72;;;5.56;64.65
76260;BME280;65076;52.362;6.588;2023-02-28T01:11:07;103174.81;;;5.73;64.02
76260;BME280;65076;52.362;6.588;2023-02-28T01:13:41;103178.19;;;5.50;64.20
76260;BME280;65076;52.362;6.588;2023-02-28T01:16:10;103167.63;;;5.69;63.59
76260;BME280;65076;52.362;6.588;2023-02-28T01:18:40;103167.50;;;5.57;63.71
76260;BME280;65076;52.362;6.588;2023-02-28T01:21:11;103173.03;;;5.72;63.62
76260;BME280;65076;52.362;6.588;2023-02-28T01:23:41;103176.47;;;5.60;64.29
76260;BME280;65076;52.362;6.588;2023-02-28T01:26:14;103175.53;;;5.52;64.38
76260;BME280;65076;52.362;6.588;2023-02-28T01:28:44;103173.91;;;5.71;63.55
76260;BME280;65076;52.362;6.588;2023-02-28T01:31:13;103167.75;;;5.82;63.67
76260;BME280;65076;52.362;6.588;2023-02-28T01:33:42;103164.41;;;6.06;62.86
76260;BME280;65076;52.362;6.588;2023-02-28T01:36:11;103168.09;;;6.22;62.01
76260;BME280;65076;52.362;6.588;2023-02-28T01:38:41;103172.56;;;6.20;62.13
76260;BME280;65076;52.362;6.588;2023-02-28T01:41:15;103157.44;;;6.37;61.96
76260;BME280;65076;52.362;6.588;2023-02-28T01:47:10;103161.94;;;6.36;61.69
76260;BME280;65076;52.362;6.588;2023-02-28T01:49:39;103161.94;;;6.41;61.97
76260;BME280;65076;52.362;6.588;2023-02-28T01:52:07;103159.25;;;6.39;62.07
76260;BME280;65076;52.362;6.588;2023-02-28T01:54:41;103152.16;;;6.55;61.31
76260;BME280;65076;52.362;6.588;2023-02-28T01:57:13;103155.47;;;6.13;62.14
76260;BME280;65076;52.362;6.588;2023-02-28T01:59:49;103160.94;;;6.25;61.94
76260;BME280;65076;52.362;6.588;2023-02-28T02:02:21;103152.94;;;6.34;61.89
76260;BME280;65076;52.362;6.588;2023-02-28T02:04:54;103164.56;;;6.33;62.05
76260;BME280;65076;52.362;6.588;2023-02-28T02:07:33;103158.34;;;6.33;61.75
76260;BME280;65076;52.362;6.588;2023-02-28T02:10:09;103151.19;;;6.41;61.67
76260;BME280;65076;52.362;6.588;2023-02-28T02:13:10;103160.22;;;6.48;61.23
76260;BME280;65076;52.362;6.588;2023-02-28T02:15:56;103165.59;;;6.48;61.31
76260;BME280;65076;52.362;6.588;2023-02-28T02:18:46;103166.38;;;6.34;62.00
76260;BME280;65076;52.362;6.588;2023-02-28T02:21:34;103168.03;;;6.11;62.09
76260;BME280;65076;52.362;6.588;2023-02-28T02:28:17;103172.38;;;5.95;62.95
76260;BME280;65076;52.362;6.588;2023-02-28T02:31:32;103170.72;;;6.11;61.54
76260;BME280;65076;52.362;6.588;2023-02-28T02:34:53;103168.03;;;6.14;60.50
76260;BME280;65076;52.362;6.588;2023-02-28T02:37:31;103171.09;;;5.57;62.46
76260;BME280;65076;52.362;6.588;2023-02-28T02:40:12;103173.97;;;5.77;60.86
76260;BME280;65076;52.362;6.588;2023-02-28T02:42:49;103171.59;;;6.13;59.25
76260;BME280;65076;52.362;6.588;2023-02-28T02:45:25;103172.44;;;6.03;59.69
76260;BME280;65076;52.362;6.588;2023-02-28T02:48:03;103166.09;;;5.95;59.27
76260;BME280;65076;52.362;6.588;2023-02-28T02:50:39;103160.78;;;6.01;57.92
76260;BME280;65076;52.362;6.588;2023-02-28T02:53:12;103179.75;;;6.24;57.76
76260;BME280;65076;52.362;6.588;2023-02-28T02:55:47;103184.75;;;5.80;58.89
76260;BME280;65076;52.362;6.588;2023-02-28T02:58:25;103174.25;;;6.06;58.80
76260;BME280;65076;52.362;6.588;2023-02-28T03:01:01;103177.91;;;6.12;57.88
76260;BME280;65076;52.362;6.588;2023-02-28T03:03:32;103181.53;;;6.23;57.56
76260;BME280;65076;52.362;6.588;2023-02-28T03:06:04;103168.22;;;6.42;57.72
76260;BME280;65076;52.362;6.588;2023-02-28T03:08:35;103182.47;;;6.28;57.28
76260;BME280;65076;52.362;6.588;2023-02-28T03:11:06;103181.59;;;6.31;56.90
76260;BME280;65076;52.362;6.588;2023-02-28T03:14:02;103184.75;;;5.81;57.95
76260;BME280;65076;52.362;6.588;2023-02-28T03:19:55;103158.34;;;6.33;58.93
76260;BME280;65076;52.362;6.588;2023-02-28T03:22:54;103158.06;;;5.98;58.79
76260;BME280;65076;52.362;6.588;2023-02-28T03:25:34;103163.72;;;6.33;58.48
76260;BME280;65076;52.362;6.588;2023-02-28T03:28:15;103164.47;;;6.15;60.38
76260;BME280;65076;52.362;6.588;2023-02-28T03:30:52;103159.63;;;5.73;60.93
76260;BME280;65076;52.362;6.588;2023-02-28T03:33:29;103149.22;;;6.11;60.71
76260;BME280;65076;52.362;6.588;2023-02-28T03:36:04;103146.41;;;5.96;61.95
76260;BME280;65076;52.362;6.588;2023-02-28T03:38:41;103161.47;;;5.82;62.28
76260;BME280;65076;52.362;6.588;2023-02-28T03:41:15;103179.75;;;5.30;63.20
76260;BME280;65076;52.362;6.588;2023-02-28T03:43:55;103162.06;;;5.47;63.28
76260;BME280;65076;52.362;6.588;2023-02-28T03:46:30;103165.84;;;5.69;61.45
76260;BME280;65076;52.362;6.588;2023-02-28T03:49:02;103158.91;;;5.91;60.84
76260;BME280;65076;52.362;6.588;2023-02-28T03:51:41;103157.78;;;5.69;61.37
76260;BME280;65076;52.362;6.588;2023-02-28T03:54:15;103174.66;;;5.54;62.97
76260;BME280;65076;52.362;6.588;2023-02-28T03:56:59;103163.41;;;5.93;61.32
76260;BME280;65076;52.362;6.588;2023-02-28T03:59:34;103161.69;;;6.03;60.87
76260;BME280;65076;52.362;6.588;2023-02-28T04:02:07;103153.56;;;5.97;61.18
76260;BME280;65076;52.362;6.588;2023-02-28T04:04:35;103152.75;;;6.06;61.05
76260;BME280;65076;52.362;6.588;2023-02-28T04:07:05;103157.19;;;6.01;61.79
76260;BME280;65076;52.362;6.588;2023-02-28T04:09:39;103155.50;;;6.18;61.17
76260;BME280;65076;52.362;6.588;2023-02-28T04:12:08;103154.56;;;6.13;61.37
76260;BME280;65076;52.362;6.588;2023-02-28T04:14:36;103161.88;;;6.27;61.12
76260;BME280;65076;52.362;6.588;2023-02-28T04:17:04;103158.28;;;6.27;60.97
76260;BME280;65076;52.362;6.588;2023-02-28T04:19:32;103156.47;;;6.26;60.54
76260;BME280;65076;52.362;6.588;2023-02-28T04:22:00;103152.56;;;5.84;61.45
76260;BME280;65076;52.362;6.588;2023-02-28T04:24:28;103163.94;;;5.58;63.27
76260;BME280;65076;52.362;6.588;2023-02-28T04:26:58;103163.47;;;6.01;63.00
76260;BME280;65076;52.362;6.588;2023-02-28T04:29:27;103160.91;;;6.19;61.81
76260;BME280;65076;52.362;6.588;2023-02-28T04:31:58;103161.22;;;5.56;63.86
76260;BME280;65076;52.362;6.588;2023-02-28T04:34:28;103164.47;;;6.12;62.22
76260;BME280;65076;52.362;6.588;2023-02-28T04:36:58;103165.00;;;5.76;63.92
76260;BME280;65076;52.362;6.588;2023-02-28T04:39:43;103154.41;;;5.88;63.65
76260;BME280;65076;52.362;6.588;2023-02-28T04:42:12;103144.63;;;5.98;62.82
76260;BME280;65076;52.362;6.588;2023-02-28T04:44:41;103151.81;;;5.99;62.23
76260;BME280;65076;52.362;6.588;2023-02-28T04:47:09;103162.97;;;5.51;63.33
76260;BME280;65076;52.362;6.588;2023-02-28T04:49:37;103176.13;;;5.25;64.80
76260;BME280;65076;52.362;6.588;2023-02-28T04:52:05;103153.31;;;5.71;63.89
76260;BME280;65076;52.362;6.588;2023-02-28T04:54:34;103162.47;;;5.88;62.83
76260;BME280;65076;52.362;6.588;2023-02-28T04:57:02;103158.91;;;5.91;62.85
76260;BME280;65076;52.362;6.588;2023-02-28T04:59:32;103149.97;;;5.95;63.06
76260;BME280;65076;52.362;6.588;2023-02-28T05:02:00;103141.88;;;5.89;62.77
76260;BME280;65076;52.362;6.588;2023-02-28T05:04:33;103133.88;;;5.95;62.57
76260;BME280;65076;52.362;6.588;2023-02-28T05:07:02;103151.84;;;6.05;62.67
76260;BME280;65076;52.362;6.588;2023-02-28T05:09:30;103149.69;;;5.63;63.43
76260;BME280;65076;52.362;6.588;2023-02-28T05:11:59;103149.69;;;5.65;64.00
76260;BME280;65076;52.362;6.588;2023-02-28T05:14:27;103162.78;;;5.34;64.95
76260;BME280;65076;52.362;6.588;2023-02-28T05:16:56;103148.78;;;5.64;64.41
76260;BME280;65076;52.362;6.588;2023-02-28T05:19:24;103145.28;;;5.73;64.33
76260;BME280;65076;52.362;6.588;2023-02-28T05:21:54;103159.53;;;5.66;63.61
76260;BME280;65076;52.362;6.588;2023-02-28T05:24:22;103162.56;;;5.11;65.20
76260;BME280;65076;52.362;6.588;2023-02-28T05:26:52;103157.28;;;5.21;65.76
76260;BME280;65076;52.362;6.588;2023-02-28T05:29:21;103160.22;;;5.42;64.25
76260;BME280;65076;52.362;6.588;2023-02-28T05:31:49;103161.34;;;5.65;64.27
76260;BME280;65076;52.362;6.588;2023-02-28T05:34:19;103171.19;;;5.68;63.59
76260;BME280;65076;52.362;6.588;2023-02-28T05:36:48;103175.28;;;5.31;64.78
76260;BME280;65076;52.362;6.588;2023-02-28T05:39:16;103172.53;;;5.23;64.90
76260;BME280;65076;52.362;6.588;2023-02-28T05:41:44;103173.56;;;5.36;64.83
76260;BME280;65076;52.362;6.588;2023-02-28T05:44:12;103179.75;;;5.27;63.94
76260;BME280;65076;52.362;6.588;2023-02-28T05:46:40;103172.53;;;5.22;64.52
76260;BME280;65076;52.362;6.588;2023-02-28T05:49:08;103184.44;;;5.48;63.47
76260;BME280;65076;52.362;6.588;2023-02-28T05:51:37;103183.03;;;5.02;63.49
76260;BME280;65076;52.362;6.588;2023-02-28T05:54:06;103175.22;;;5.25;63.92
76260;BME280;65076;52.362;6.588;2023-02-28T05:56:34;103165.56;;;5.42;62.92
76260;BME280;65076;52.362;6.588;2023-02-28T05:59:05;103165.53;;;5.40;63.38
76260;BME280;65076;52.362;6.588;2023-02-28T06:01:34;103172.03;;;5.59;62.62
76260;BME280;65076;52.362;6.588;2023-02-28T06:04:06;103176.19;;;5.28;63.53
76260;BME280;65076;52.362;6.588;2023-02-28T06:06:46;103177.28;;;5.50;62.70
76260;BME280;65076;52.362;6.588;2023-02-28T06:09:15;103184.22;;;5.28;64.08
76260;BME280;65076;52.362;6.588;2023-02-28T06:11:44;103177.34;;;5.54;63.62
76260;BME280;65076;52.362;6.588;2023-02-28T06:14:14;103186.22;;;5.50;63.06
76260;BME280;65076;52.362;6.588;2023-02-28T06:16:43;103181.94;;;5.65;62.81
76260;BME280;65076;52.362;6.588;2023-02-28T06:19:12;103183.78;;;5.76;62.44
76260;BME280;65076;52.362;6.588;2023-02-28T06:21:41;103190.94;;;5.70;62.88
76260;BME280;65076;52.362;6.588;2023-02-28T06:24:10;103191.75;;;5.64;63.40
76260;BME280;65076;52.362;6.588;2023-02-28T06:26:39;103181.84;;;5.59;63.26
76260;BME280;65076;52.362;6.588;2023-02-28T06:29:07;103190.13;;;5.80;62.92
76260;BME280;65076;52.362;6.588;2023-02-28T06:31:35;103195.91;;;5.33;64.06
76260;BME280;65076;52.362;6.588;2023-02-28T06:34:03;103199.78;;;5.61;63.59
76260;BME280;65076;52.362;6.588;2023-02-28T06:36:32;103197.09;;;5.61;63.98
76260;BME280;65076;52.362;6.588;2023-02-28T06:39:00;103200.59;;;5.52;63.33
76260;BME280;65076;52.362;6.588;2023-02-28T06:41:29;103212.25;;;5.54;63.31
76260;BME280;65076;52.362;6.588;2023-02-28T06:44:17;103207.00;;;5.65;62.63
76260;BME280;65076;52.362;6.588;2023-02-28T06:46:46;103219.06;;;5.25;63.45
76260;BME280;65076;52.362;6.588;2023-02-28T06:49:15;103217.91;;;5.02;62.95
76260;BME280;65076;52.362;6.588;2023-02-28T06:51:44;103213.94;;;5.43;62.93
76260;BME280;65076;52.362;6.588;2023-02-28T06:54:12;103216.69;;;5.52;62.16
76260;BME280;65076;52.362;6.588;2023-02-28T06:56:42;103222.00;;;5.46;61.39
76260;BME280;65076;52.362;6.588;2023-02-28T06:59:10;103226.63;;;5.60;61.12
76260;BME280;65076;52.362;6.588;2023-02-28T07:01:39;103234.16;;;5.16;60.73
76260;BME280;65076;52.362;6.588;2023-02-28T07:04:07;103237.53;;;4.99;61.42
76260;BME280;65076;52.362;6.588;2023-02-28T07:06:35;103234.59;;;5.55;59.52
76260;BME280;65076;52.362;6.588;2023-02-28T07:09:07;103244.41;;;5.48;59.66
76260;BME280;65076;52.362;6.588;2023-02-28T07:11:38;103244.22;;;5.33;59.87
76260;BME280;65076;52.362;6.588;2023-02-28T07:14:10;103239.03;;;5.50;58.93
76260;BME280;65076;52.362;6.588;2023-02-28T07:16:38;103235.56;;;5.59;58.62
76260;BME280;65076;52.362;6.588;2023-02-28T07:19:09;103240.78;;;5.46;58.49
76260;BME280;65076;52.362;6.588;2023-02-28T07:21:40;103237.41;;;5.64;57.23
76260;BME280;65076;52.362;6.588;2023-02-28T07:24:08;103236.28;;;5.45;57.41
76260;BME280;65076;52.362;6.588;2023-02-28T07:26:36;103235.63;;;5.66;56.88
76260;BME280;65076;52.362;6.588;2023-02-28T07:29:06;103249.78;;;5.48;57.97
76260;BME280;65076;52.362;6.588;2023-02-28T07:31:35;103245.81;;;5.97;56.19
76260;BME280;65076;52.362;6.588;2023-02-28T07:34:04;103254.00;;;6.07;54.97
76260;BME280;65076;52.362;6.588;2023-02-28T07:36:32;103259.00;;;5.76;54.77
76260;BME280;65076;52.362;6.588;2023-02-28T07:39:00;103251.19;;;5.94;54.48
76260;BME280;65076;52.362;6.588;2023-02-28T07:41:30;103258.47;;;6.08;52.78
76260;BME280;65076;52.362;6.588;2023-02-28T07:44:00;103260.41;;;6.25;52.11
76260;BME280;65076;52.362;6.588;2023-02-28T07:46:29;103252.34;;;6.25;51.33
76260;BME280;65076;52.362;6.588;2023-02-28T07:49:04;103251.41;;;6.17;52.73
76260;BME280;65076;52.362;6.588;2023-02-28T07:51:32;103245.44;;;6.58;51.16
76260;BME280;65076;52.362;6.588;2023-02-28T07:54:00;103254.44;;;6.63;49.78
76260;BME280;65076;52.362;6.588;2023-02-28T07:56:29;103251.16;;;7.15;48.99
76260;BME280;65076;52.362;6.588;2023-02-28T07:58:57;103245.03;;;7.63;46.91
76260;BME280;65076;52.362;6.588;2023-02-28T08:01:25;103240.59;;;8.25;44.85
76260;BME280;65076;52.362;6.588;2023-02-28T08:03:54;103233.06;;;9.57;41.93
76260;BME280;65076;52.362;6.588;2023-02-28T08:06:25;103235.34;;;10.19;39.78
76260;BME280;65076;52.362;6.588;2023-02-28T08:08:53;103235.66;;;10.81;37.17
76260;BME280;65076;52.362;6.588;2023-02-28T08:11:22;103238.59;;;10.59;36.21
76260;BME280;65076;52.362;6.588;2023-02-28T08:13:52;103238.31;;;10.85;36.47
76260;BME280;65076;52.362;6.588;2023-02-28T08:16:20;103239.75;;;11.17;35.86
76260;BME280;65076;52.362;6.588;2023-02-28T08:18:49;103240.72;;;11.81;34.33
76260;BME280;65076;52.362;6.588;2023-02-28T08:21:18;103237.94;;;11.86;32.73
76260;BME280;65076;52.362;6.588;2023-02-28T08:23:49;103231.38;;;12.99;32.47
76260;BME280;65076;52.362;6.588;2023-02-28T08:26:18;103228.44;;;12.65;31.28
76260;BME280;65076;52.362;6.588;2023-02-28T08:28:47;103232.97;;;12.64;30.86
76260;BME280;65076;52.362;6.588;2023-02-28T08:31:15;103241.06;;;13.15;27.43
76260;BME280;65076;52.362;6.588;2023-02-28T08:33:44;103236.72;;;13.88;25.06
76260;BME280;65076;52.362;6.588;2023-02-28T08:36:15;103240.09;;;13.61;25.19
76260;BME280;65076;52.362;6.588;2023-02-28T08:38:43;103241.53;;;14.14;24.87
76260;BME280;65076;52.362;6.588;2023-02-28T08:41:13;103229.00;;;13.28;26.59
76260;BME280;65076;52.362;6.588;2023-02-28T08:43:41;103239.50;;;12.53;27.81
76260;BME280;65076;52.362;6.588;2023-02-28T08:46:12;103245.03;;;12.97;26.10
76260;BME280;65076;52.362;6.588;2023-02-28T08:48:41;103240.13;;;13.16;25.45
76260;BME280;65076;52.362;6.588;2023-02-28T08:51:11;103231.84;;;13.64;24.46
76260;BME280;65076;52.362;6.588;2023-02-28T08:53:42;103231.50;;;14.16;25.15
76260;BME280;65076;52.362;6.588;2023-02-28T08:56:12;103221.13;;;14.31;23.99
76260;BME280;65076;52.362;6.588;2023-02-28T08:58:44;103223.00;;;14.65;23.63
76260;BME280;65076;52.362;6.588;2023-02-28T09:01:14;103240.84;;;13.26;24.97
76260;BME280;65076;52.362;6.588;2023-02-28T09:03:45;103234.38;;;12.85;25.69
76260;BME280;65076;52.362;6.588;2023-02-28T09:06:17;103242.16;;;13.48;24.31
76260;BME280;65076;52.362;6.588;2023-02-28T09:08:46;103232.81;;;14.36;23.41
76260;BME280;65076;52.362;6.588;2023-02-28T09:11:17;103242.75;;;13.21;24.78
76260;BME280;65076;52.362;6.588;2023-02-28T09:13:46;103244.25;;;12.42;26.25
76260;BME280;65076;52.362;6.588;2023-02-28T09:16:15;103244.66;;;13.15;25.31
76260;BME280;65076;52.362;6.588;2023-02-28T09:18:44;103234.78;;;13.13;24.88
76260;BME280;65076;52.362;6.588;2023-02-28T09:21:13;103237.44;;;13.56;23.26
76260;BME280;65076;52.362;6.588;2023-02-28T09:23:43;103236.06;;;14.14;22.62
76260;BME280;65076;52.362;6.588;2023-02-28T09:26:14;103229.03;;;14.76;21.73
76260;BME280;65076;52.362;6.588;2023-02-28T09:28:46;103226.25;;;14.77;21.73
76260;BME280;65076;52.362;6.588;2023-02-28T09:31:15;103227.53;;;14.64;22.81
76260;BME280;65076;52.362;6.588;2023-02-28T09:33:47;103233.44;;;14.11;21.64
76260;BME280;65076;52.362;6.588;2023-02-28T09:36:16;103237.38;;;13.97;22.51
76260;BME280;65076;52.362;6.588;2023-02-28T09:38:44;103232.78;;;13.63;22.82
76260;BME280;65076;52.362;6.588;2023-02-28T09:41:17;103227.38;;;14.35;22.91
76260;BME280;65076;52.362;6.588;2023-02-28T09:43:52;103236.66;;;13.08;23.77
76260;BME280;65076;52.362;6.588;2023-02-28T09:46:29;103223.66;;;13.65;23.41
76260;BME280;65076;52.362;6.588;2023-02-28T09:49:04;103220.06;;;14.71;22.16
76260;BME280;65076;52.362;6.588;2023-02-28T09:51:43;103225.59;;;14.69;22.30
76260;BME280;65076;52.362;6.588;2023-02-28T09:54:20;103218.66;;;14.21;22.28
76260;BME280;65076;52.362;6.588;2023-02-28T09:56:54;103224.09;;;15.21;22.03
76260;BME280;65076;52.362;6.588;2023-02-28T09:59:39;103222.03;;;15.60;20.88
76260;BME280;65076;52.362;6.588;2023-02-28T10:02:24;103222.09;;;14.97;21.17
76260;BME280;65076;52.362;6.588;2023-02-28T10:05:18;103224.63;;;15.03;21.41
76260;BME280;65076;52.362;6.588;2023-02-28T10:08:03;103224.63;;;14.38;21.49
76260;BME280;65076;52.362;6.588;2023-02-28T10:10:40;103220.34;;;15.85;19.68
76260;BME280;65076;52.362;6.588;2023-02-28T10:13:23;103218.22;;;15.93;19.29
76260;BME280;65076;52.362;6.588;2023-02-28T10:15:58;103210.97;;;15.92;19.97
76260;BME280;65076;52.362;6.588;2023-02-28T10:18:33;103217.13;;;14.09;21.05
76260;BME280;65076;52.362;6.588;2023-02-28T10:21:16;103221.44;;;15.18;20.77
76260;BME280;65076;52.362;6.588;2023-02-28T10:23:48;103213.69;;;15.04;20.30
76260;BME280;65076;52.362;6.588;2023-02-28T10:26:20;103219.69;;;14.86;21.33
76260;BME280;65076;52.362;6.588;2023-02-28T10:28:52;103220.97;;;14.02;21.88
76260;BME280;65076;52.362;6.588;2023-02-28T10:31:21;103215.97;;;14.89;20.74
76260;BME280;65076;52.362;6.588;2023-02-28T10:33:51;103220.59;;;15.76;20.65
76260;BME280;65076;52.362;6.588;2023-02-28T10:36:21;103212.25;;;14.23;21.74
76260;BME280;65076;52.362;6.588;2023-02-28T10:38:49;103217.53;;;14.65;20.80
76260;BME280;65076;52.362;6.588;2023-02-28T10:41:28;103226.16;;;13.34;23.63
76260;BME280;65076;52.362;6.588;2023-02-28T10:44:18;103221.47;;;12.50;24.80
76260;BME280;65076;52.362;6.588;2023-02-28T10:46:49;103225.19;;;11.91;25.26
76260;BME280;65076;52.362;6.588;2023-02-28T10:49:22;103224.50;;;11.77;24.80
76260;BME280;65076;52.362;6.588;2023-02-28T10:51:52;103220.81;;;11.81;25.49
76260;BME280;65076;52.362;6.588;2023-02-28T10:54:26;103228.06;;;11.10;26.44
76260;BME280;65076;52.362;6.588;2023-02-28T10:57:15;103219.53;;;10.69;27.57
76260;BME280;65076;52.362;6.588;2023-02-28T10:59:50;103210.50;;;11.41;26.97
76260;BME280;65076;52.362;6.588;2023-02-28T11:02:33;103216.88;;;10.64;28.13
76260;BME280;65076;52.362;6.588;2023-02-28T11:05:23;103224.25;;;11.29;27.94
76260;BME280;65076;52.362;6.588;2023-02-28T11:07:53;103220.97;;;11.67;27.70
76260;BME280;65076;52.362;6.588;2023-02-28T11:10:25;103213.38;;;11.94;27.32
76260;BME280;65076;52.362;6.588;2023-02-28T11:12:58;103209.44;;;11.52;28.13
76260;BME280;65076;52.362;6.588;2023-02-28T11:15:29;103219.41;;;9.78;30.74
76260;BME280;65076;52.362;6.588;2023-02-28T11:18:01;103212.00;;;11.62;29.35
76260;BME280;65076;52.362;6.588;2023-02-28T11:20:51;103202.72;;;11.17;27.89
76260;BME280;65076;52.362;6.588;2023-02-28T11:23:25;103204.28;;;11.98;28.10
76260;BME280;65076;52.362;6.588;2023-02-28T11:25:59;103201.28;;;11.56;29.13
76260;BME280;65076;52.362;6.588;2023-02-28T11:28:31;103206.56;;;10.98;29.09
76260;BME280;65076;52.362;6.588;2023-02-28T11:31:05;103189.13;;;11.83;28.51
76260;BME280;65076;52.362;6.588;2023-02-28T11:33:47;103201.41;;;10.77;29.58
76260;BME280;65076;52.362;6.588;2023-02-28T11:36:19;103201.28;;;10.86;28.40
76260;BME280;65076;52.362;6.588;2023-02-28T11:38:51;103199.91;;;11.25;29.03
76260;BME280;65076;52.362;6.588;2023-02-28T11:41:39;103178.91;;;10.70;28.66
76260;BME280;65076;52.362;6.588;2023-02-28T11:44:34;103178.50;;;11.03;29.92
76260;BME280;65076;52.362;6.588;2023-02-28T11:47:17;103180.75;;;12.49;27.37
76260;BME280;65076;52.362;6.588;2023-02-28T11:49:59;103176.00;;;12.11;27.41
76260;BME280;65076;52.362;6.588;2023-02-28T11:52:45;103170.19;;;12.80;26.35
76260;BME280;65076;52.362;6.588;2023-02-28T11:55:24;103184.78;;;11.07;28.62
76260;BME280;65076;52.362;6.588;2023-02-28T11:58:25;103182.25;;;12.17;27.32
76260;BME280;65076;52.362;6.588;2023-02-28T12:01:22;103169.38;;;13.59;25.99
76260;BME280;65076;52.362;6.588;2023-02-28T12:04:15;103171.06;;;14.02;26.13
76260;BME280;65076;52.362;6.588;2023-02-28T12:06:57;103164.47;;;14.46;24.62
76260;BME280;65076;52.362;6.588;2023-02-28T12:09:46;103153.56;;;15.38;22.66
76260;BME280;65076;52.362;6.588;2023-02-28T12:12:32;103150.66;;;14.84;24.37
76260;BME280;65076;52.362;6.588;2023-02-28T12:15:20;103149.28;;;16.13;22.66
76260;BME280;65076;52.362;6.588;2023-02-28T12:18:10;103154.25;;;15.17;22.30
76260;BME280;65076;52.362;6.588;2023-02-28T12:21:01;103148.25;;;14.73;23.13
76260;BME280;65076;52.362;6.588;2023-02-28T12:23:50;103155.00;;;13.91;24.14
76260;BME280;65076;52.362;6.588;2023-02-28T12:26:34;103163.97;;;11.73;27.19
76260;BME280;65076;52.362;6.588;2023-02-28T12:29:12;103155.81;;;12.27;27.17
76260;BME280;65076;52.362;6.588;2023-02-28T12:31:49;103145.81;;;13.20;26.33
76260;BME280;65076;52.362;6.588;2023-02-28T12:34:25;103139.06;;;13.37;25.91
76260;BME280;65076;52.362;6.588;2023-02-28T12:37:01;103124.31;;;13.84;25.82
76260;BME280;65076;52.362;6.588;2023-02-28T12:39:37;103137.69;;;12.29;27.65
76260;BME280;65076;52.362;6.588;2023-02-28T12:42:19;103130.53;;;11.73;28.44
76260;BME280;65076;52.362;6.588;2023-02-28T12:44:59;103136.41;;;11.41;28.72
76260;BME280;65076;52.362;6.588;2023-02-28T12:47:29;103119.81;;;11.62;27.59
76260;BME280;65076;52.362;6.588;2023-02-28T12:50:04;103127.59;;;12.36;26.20
76260;BME280;65076;52.362;6.588;2023-02-28T12:52:41;103124.63;;;12.00;26.58
76260;BME280;65076;52.362;6.588;2023-02-28T12:55:23;103122.63;;;12.11;26.64
76260;BME280;65076;52.362;6.588;2023-02-28T12:58:07;103118.94;;;13.04;26.03
76260;BME280;65076;52.362;6.588;2023-02-28T13:00:52;103116.28;;;13.01;26.42
76260;BME280;65076;52.362;6.588;2023-02-28T13:03:52;103104.84;;;12.87;24.56
76260;BME280;65076;52.362;6.588;2023-02-28T13:07:04;103108.16;;;12.58;25.13
76260;BME280;65076;52.362;6.588;2023-02-28T13:09:53;103097.53;;;11.99;26.01
76260;BME280;65076;52.362;6.588;2023-02-28T13:12:24;103084.94;;;12.42;25.56
76260;BME280;65076;52.362;6.588;2023-02-28T13:15:04;103097.28;;;12.12;26.48
76260;BME280;65076;52.362;6.588;2023-02-28T13:17:39;103091.28;;;12.41;27.31
76260;BME280;65076;52.362;6.588;2023-02-28T13:20:16;103089.28;;;12.05;27.39
76260;BME280;65076;52.362;6.588;2023-02-28T13:22:48;103087.03;;;12.28;26.56
76260;BME280;65076;52.362;6.588;2023-02-28T13:25:52;103078.94;;;12.71;25.14
76260;BME280;65076;52.362;6.588;2023-02-28T13:32:28;103080.41;;;13.64;24.38
76260;BME280;65076;52.362;6.588;2023-02-28T13:38:23;103079.84;;;14.52;23.80
76260;BME280;65076;52.362;6.588;2023-02-28T13:44:11;103088.16;;;13.44;24.84
76260;BME280;65076;52.362;6.588;2023-02-28T13:50:15;103077.84;;;13.56;25.71
76260;BME280;65076;52.362;6.588;2023-02-28T13:52:58;103072.63;;;13.09;25.66
76260;BME280;65076;52.362;6.588;2023-02-28T13:55:46;103078.97;;;13.48;25.48